Alvarado, Indiana
Current Conditions -  °F | °C
As of 3:35 AM on Monday 24 Nov 2014 (Local Time) from KANQ Reporting Station
Overcast Overcast  
Wind Chill: 54°   Ceiling: 1300
Heat Index: 54°   Visibility: 10mi
Dew Point: 43°   Wind: 17mph
Humidity: 67%   Direction: 240°WSW
Pressure: 29.1"   Gusts: NA
Location:  41.5557°N, 84.8806°W
Report Text: KANQ 240835Z AUTO 24015KT 10SM OVC013 12/06 A2910 RMK
Loading
Personal Weather Stations






























Interactive Weather Map New forecast layout! Learn more

10-Day Weather Forecast

Advertisements
Track Severe Weather on mobile